Time;durP1;ratioP1;P1;durP2;ratioP2;P2;SDS_P1;SDS_P2;PMS_P1;PMS_P2;Temp;Humidity;BMP_temperature;BMP_pressure;BME280_temperature;BME280_humidity;BME280_pressure;Samples;Min_cycle;Max_cycle;Signal;HPM_P1;HPM_P2
2021/06/18 00:00:38;;;;;;;5.90;5.30;;;;;;;;;;4958228;28;20507;-72
2021/06/18 00:03:04;;;;;;;9.63;5.30;;;;;;;;;;4956238;28;20537;-72
2021/06/18 00:05:30;;;;;;;7.63;5.47;;;;;;;;;;4959836;28;20074;-72
2021/06/18 00:07:57;;;;;;;5.80;5.20;;;;;;;;;;4955915;28;20055;-72
2021/06/18 00:10:25;;;;;;;6.38;5.72;;;;;;;;;;4951544;28;20055;-71
2021/06/18 00:12:51;;;;;;;5.70;5.13;;;;;;;;;;4950996;28;20114;-71
2021/06/18 00:15:18;;;;;;;5.70;5.10;;;;;;;;;;4962672;28;20701;-71
2021/06/18 00:17:45;;;;;;;6.68;5.45;;;;;;;;;;4942246;28;20079;-71
2021/06/18 00:20:12;;;;;;;5.88;5.35;;;;;;;;;;4931731;28;20082;-72
2021/06/18 00:22:39;;;;;;;6.35;5.75;;;;;;;;;;4932224;28;20055;-72
2021/06/18 00:25:06;;;;;;;7.38;5.97;;;;;;;;;;4945158;28;20419;-72
2021/06/18 00:27:33;;;;;;;7.32;6.50;;;;;;;;;;4956159;28;20348;-73
2021/06/18 00:29:59;;;;;;;6.80;5.30;;;;;;;;;;4955071;28;20445;-70
2021/06/18 00:32:26;;;;;;;5.95;5.35;;;;;;;;;;4949221;28;20117;-72
2021/06/18 00:34:52;;;;;;;6.68;6.05;;;;;;;;;;4947028;28;20145;-72
2021/06/18 00:37:19;;;;;;;8.32;6.75;;;;;;;;;;4960028;28;20117;-72
2021/06/18 00:39:45;;;;;;;5.88;5.28;;;;;;;;;;4954712;28;20063;-72
2021/06/18 00:42:11;;;;;;;6.45;5.85;;;;;;;;;;4954761;28;20066;-72
2021/06/18 00:44:38;;;;;;;6.47;5.88;;;;;;;;;;4943695;28;20075;-72
2021/06/18 00:47:04;;;;;;;6.72;5.10;;;;;;;;;;4949711;28;20055;-72
2021/06/18 00:49:31;;;;;;;5.55;5.03;;;;;;;;;;4946919;28;20058;-72
2021/06/18 00:51:58;;;;;;;6.95;6.25;;;;;;;;;;4957302;28;20212;-72
2021/06/18 00:54:30;;;;;;;6.20;5.40;;;;;;;;;;4947409;28;20130;-72
2021/06/18 00:57:00;;;;;;;5.82;5.28;;;;;;;;;;4946448;28;20159;-72
2021/06/18 00:59:27;;;;;;;8.13;7.37;;;;;;;;;;4942507;28;20063;-71
2021/06/18 01:01:54;;;;;;;7.93;5.95;;;;;;;;;;4946840;28;20052;-72
2021/06/18 01:04:23;;;;;;;5.72;5.13;;;;;;;;;;4948980;28;20055;-72
2021/06/18 01:06:53;;;;;;;5.85;5.25;;;;;;;;;;4949528;28;20114;-72
2021/06/18 01:09:20;;;;;;;8.60;7.07;;;;;;;;;;4948046;28;20039;-72
2021/06/18 01:11:59;;;;;;;6.22;5.63;;;;;;;;;;4938581;28;20055;-72
2021/06/18 01:14:25;;;;;;;6.47;5.88;;;;;;;;;;4924079;28;20091;-72
2021/06/18 01:16:58;;;;;;;6.40;5.78;;;;;;;;;;4948063;28;20039;-73
2021/06/18 01:19:25;;;;;;;6.63;5.82;;;;;;;;;;4949731;28;20749;-72
2021/06/18 01:22:01;;;;;;;7.50;6.80;;;;;;;;;;4948886;28;20068;-72
2021/06/18 01:24:46;;;;;;;6.63;5.78;;;;;;;;;;4950299;28;20125;-72
2021/06/18 01:27:18;;;;;;;7.63;6.90;;;;;;;;;;4950204;28;22234;-72
2021/06/18 01:29:46;;;;;;;7.10;6.40;;;;;;;;;;4945671;28;20039;-72
2021/06/18 01:32:25;;;;;;;6.82;6.22;;;;;;;;;;4943786;28;20075;-72
2021/06/18 01:34:53;;;;;;;7.90;7.15;;;;;;;;;;4929061;28;20209;-72
2021/06/18 01:37:20;;;;;;;6.30;5.70;;;;;;;;;;4944873;28;20102;-72
2021/06/18 01:39:48;;;;;;;7.97;6.60;;;;;;;;;;4952118;28;20121;-72
2021/06/18 01:42:15;;;;;;;7.57;5.75;;;;;;;;;;4951445;28;20498;-72
2021/06/18 01:44:42;;;;;;;7.47;6.40;;;;;;;;;;4957875;28;20067;-72
2021/06/18 01:47:10;;;;;;;8.63;7.63;;;;;;;;;;4952595;28;20039;-72
2021/06/18 01:49:38;;;;;;;7.65;6.93;;;;;;;;;;4946667;28;20577;-72
2021/06/18 01:52:05;;;;;;;7.25;6.65;;;;;;;;;;4945890;28;20054;-72
2021/06/18 01:54:33;;;;;;;6.80;6.13;;;;;;;;;;4933311;28;20071;-71
2021/06/18 01:57:00;;;;;;;7.97;6.07;;;;;;;;;;4943859;28;20095;-72
2021/06/18 01:59:28;;;;;;;7.55;6.40;;;;;;;;;;4945217;28;20526;-71
2021/06/18 02:01:55;;;;;;;8.00;7.20;;;;;;;;;;4942399;28;20063;-71
2021/06/18 02:04:22;;;;;;;8.73;7.82;;;;;;;;;;4946352;28;20130;-71
2021/06/18 02:06:49;;;;;;;7.07;6.38;;;;;;;;;;4946820;28;20062;-72
2021/06/18 02:09:16;;;;;;;8.20;7.40;;;;;;;;;;4956464;28;20113;-72
2021/06/18 02:11:44;;;;;;;8.07;7.28;;;;;;;;;;4928945;28;20708;-72
2021/06/18 02:14:13;;;;;;;7.97;7.18;;;;;;;;;;4929850;28;20071;-72
2021/06/18 02:16:42;;;;;;;8.77;7.88;;;;;;;;;;4929715;28;20129;-71
2021/06/18 02:19:08;;;;;;;6.78;5.97;;;;;;;;;;4933376;28;20063;-72
2021/06/18 02:21:35;;;;;;;7.93;7.00;;;;;;;;;;4945625;28;20089;-71
2021/06/18 02:24:04;;;;;;;8.10;7.30;;;;;;;;;;4954750;28;20067;-72
2021/06/18 02:26:30;;;;;;;6.85;6.10;;;;;;;;;;4945027;28;20094;-72
2021/06/18 02:28:57;;;;;;;7.00;6.30;;;;;;;;;;4941224;28;20059;-72
2021/06/18 02:31:24;;;;;;;7.93;7.13;;;;;;;;;;4940892;28;20064;-72
2021/06/18 02:33:51;;;;;;;7.40;6.70;;;;;;;;;;4933887;28;20075;-72
2021/06/18 02:36:18;;;;;;;7.03;6.32;;;;;;;;;;4947755;28;20058;-72
2021/06/18 02:38:45;;;;;;;6.82;6.10;;;;;;;;;;4947589;28;20067;-72
2021/06/18 02:41:12;;;;;;;6.35;5.75;;;;;;;;;;4947159;28;20587;-72
2021/06/18 02:43:38;;;;;;;7.00;6.30;;;;;;;;;;4945899;28;20062;-71
2021/06/18 02:46:05;;;;;;;7.50;6.78;;;;;;;;;;4947175;28;20066;-71
2021/06/18 02:48:41;;;;;;;7.60;6.85;;;;;;;;;;4938084;28;20499;-72
2021/06/18 02:51:18;;;;;;;6.88;6.00;;;;;;;;;;4945996;28;20344;-71
2021/06/18 02:53:51;;;;;;;7.60;6.88;;;;;;;;;;4946167;28;20079;-71
2021/06/18 02:56:25;;;;;;;31.23;8.82;;;;;;;;;;4933184;28;20059;-71
2021/06/18 02:58:57;;;;;;;8.70;7.13;;;;;;;;;;4926615;28;20689;-72
2021/06/18 03:01:25;;;;;;;21.50;8.05;;;;;;;;;;4941954;28;20122;-71
2021/06/18 03:03:54;;;;;;;17.60;7.15;;;;;;;;;;4945742;28;20740;-72
2021/06/18 03:06:21;;;;;;;7.15;6.53;;;;;;;;;;4952130;28;20113;-71
2021/06/18 03:08:52;;;;;;;7.00;6.30;;;;;;;;;;4946095;28;20110;-72
2021/06/18 03:11:20;;;;;;;6.90;6.13;;;;;;;;;;4946797;28;20058;-72
2021/06/18 03:13:48;;;;;;;11.60;6.95;;;;;;;;;;4946232;28;20865;-72
2021/06/18 03:16:15;;;;;;;7.05;6.35;;;;;;;;;;4952013;28;20035;-72
2021/06/18 03:18:43;;;;;;;10.25;6.10;;;;;;;;;;4937907;28;20066;-72
2021/06/18 03:21:11;;;;;;;9.15;6.30;;;;;;;;;;4949035;28;20127;-72
2021/06/18 03:23:38;;;;;;;7.55;6.85;;;;;;;;;;4948930;28;20066;-71
2021/06/18 03:26:04;;;;;;;7.20;6.50;;;;;;;;;;4941572;28;20059;-72
2021/06/18 03:28:31;;;;;;;6.95;6.25;;;;;;;;;;4945085;28;20069;-72
2021/06/18 03:30:58;;;;;;;7.82;7.13;;;;;;;;;;4945110;28;20411;-72
2021/06/18 03:33:26;;;;;;;8.00;7.30;;;;;;;;;;4945209;28;20066;-72
2021/06/18 03:35:52;;;;;;;7.30;6.60;;;;;;;;;;4945404;28;20165;-72
2021/06/18 03:38:19;;;;;;;7.35;6.65;;;;;;;;;;4945250;28;20070;-72
2021/06/18 03:40:46;;;;;;;12.95;7.68;;;;;;;;;;4947117;28;20075;-72
2021/06/18 03:43:13;;;;;;;8.60;7.72;;;;;;;;;;4944467;28;20036;-72
2021/06/18 03:45:42;;;;;;;8.07;7.20;;;;;;;;;;4940760;28;20066;-72
2021/06/18 03:48:16;;;;;;;7.88;6.80;;;;;;;;;;4943788;28;20090;-72
2021/06/18 03:50:44;;;;;;;8.70;7.47;;;;;;;;;;4944992;28;20051;-72
2021/06/18 03:53:11;;;;;;;9.50;8.50;;;;;;;;;;4944298;28;20162;-70
2021/06/18 03:55:40;;;;;;;8.38;6.32;;;;;;;;;;4945011;28;20063;-71
2021/06/18 03:58:07;;;;;;;8.07;7.28;;;;;;;;;;4943675;28;21037;-71
2021/06/18 04:00:37;;;;;;;12.02;7.72;;;;;;;;;;4942009;28;20150;-71
2021/06/18 04:03:04;;;;;;;11.10;7.82;;;;;;;;;;4945663;28;20078;-71
2021/06/18 04:05:31;;;;;;;17.70;8.52;;;;;;;;;;4946564;28;20118;-71
2021/06/18 04:07:58;;;;;;;10.90;7.10;;;;;;;;;;4934261;28;20150;-72
2021/06/18 04:10:24;;;;;;;7.22;6.50;;;;;;;;;;4929377;28;20067;-72
2021/06/18 04:12:53;;;;;;;7.82;7.03;;;;;;;;;;4926636;28;20070;-72
2021/06/18 04:15:21;;;;;;;7.72;6.93;;;;;;;;;;4928265;28;20059;-71
2021/06/18 04:17:48;;;;;;;7.95;7.15;;;;;;;;;;4925712;28;20721;-71
2021/06/18 04:20:14;;;;;;;8.77;7.88;;;;;;;;;;4939616;28;20039;-70
2021/06/18 04:22:41;;;;;;;7.95;7.20;;;;;;;;;;4944846;28;20110;-70
2021/06/18 04:25:08;;;;;;;7.03;6.30;;;;;;;;;;4932781;28;20121;-71
2021/06/18 04:27:34;;;;;;;6.97;6.20;;;;;;;;;;4948812;28;20488;-71
2021/06/18 04:30:00;;;;;;;7.32;6.65;;;;;;;;;;4946027;28;20114;-69
2021/06/18 04:32:27;;;;;;;8.48;7.57;;;;;;;;;;4955857;28;20062;-69
2021/06/18 04:34:53;;;;;;;7.32;6.72;;;;;;;;;;4952942;28;20582;-70
2021/06/18 04:37:20;;;;;;;9.35;6.60;;;;;;;;;;4948308;28;20078;-70
2021/06/18 04:39:46;;;;;;;8.63;7.35;;;;;;;;;;4960026;28;20066;-70
2021/06/18 04:42:12;;;;;;;9.85;8.10;;;;;;;;;;4948948;28;20731;-69
2021/06/18 04:44:39;;;;;;;9.98;7.90;;;;;;;;;;4949415;28;20075;-71
2021/06/18 04:47:06;;;;;;;12.07;8.93;;;;;;;;;;4947677;28;20055;-70
2021/06/18 04:49:32;;;;;;;16.88;8.27;;;;;;;;;;4957346;28;20778;-68
2021/06/18 04:51:59;;;;;;;13.15;8.25;;;;;;;;;;4946899;28;21313;-70
2021/06/18 04:54:25;;;;;;;10.90;6.95;;;;;;;;;;4938374;28;20579;-70
2021/06/18 04:56:52;;;;;;;9.77;8.15;;;;;;;;;;4936691;28;20067;-71
2021/06/18 04:59:19;;;;;;;10.38;7.68;;;;;;;;;;4945347;28;20043;-70
2021/06/18 05:01:46;;;;;;;11.30;8.57;;;;;;;;;;4937189;28;20082;-70
2021/06/18 05:04:13;;;;;;;11.82;7.50;;;;;;;;;;4947534;28;20066;-70
2021/06/18 05:06:39;;;;;;;10.88;8.07;;;;;;;;;;4956727;28;20073;-70
2021/06/18 05:09:06;;;;;;;15.18;8.82;;;;;;;;;;4951181;28;20062;-69
2021/06/18 05:11:32;;;;;;;9.70;8.05;;;;;;;;;;4953225;28;20062;-71
2021/06/18 05:13:59;;;;;;;11.55;8.52;;;;;;;;;;4957836;28;21595;-71
2021/06/18 05:16:26;;;;;;;12.80;8.30;;;;;;;;;;4954229;28;20071;-71
2021/06/18 05:18:52;;;;;;;12.18;8.45;;;;;;;;;;4947885;28;20141;-71
2021/06/18 05:21:19;;;;;;;10.10;8.27;;;;;;;;;;4951915;28;20149;-69
2021/06/18 05:23:45;;;;;;;9.73;8.00;;;;;;;;;;4954994;28;20767;-71
2021/06/18 05:26:12;;;;;;;7.93;7.20;;;;;;;;;;4949246;28;20575;-70
2021/06/18 05:28:38;;;;;;;11.23;8.18;;;;;;;;;;4957743;28;20475;-70
2021/06/18 05:31:04;;;;;;;9.82;8.43;;;;;;;;;;4954069;28;20050;-70
2021/06/18 05:33:31;;;;;;;10.32;7.70;;;;;;;;;;4948643;28;20083;-70
2021/06/18 05:35:57;;;;;;;8.38;7.05;;;;;;;;;;4956134;28;20075;-70
2021/06/18 05:38:24;;;;;;;9.70;8.27;;;;;;;;;;4949213;28;20581;-70
2021/06/18 05:40:52;;;;;;;9.27;7.65;;;;;;;;;;4927495;28;20587;-70
2021/06/18 05:43:19;;;;;;;11.48;8.55;;;;;;;;;;4927798;29;20078;-71
2021/06/18 05:45:45;;;;;;;9.57;8.57;;;;;;;;;;4928248;28;20047;-69
2021/06/18 05:48:12;;;;;;;8.65;7.57;;;;;;;;;;4927102;28;20477;-70
2021/06/18 05:50:38;;;;;;;8.90;8.00;;;;;;;;;;4920944;28;20048;-71
2021/06/18 05:53:05;;;;;;;8.80;7.68;;;;;;;;;;4929148;28;20064;-71
2021/06/18 05:55:31;;;;;;;12.18;7.60;;;;;;;;;;4934860;28;20074;-71
2021/06/18 05:57:58;;;;;;;8.50;7.72;;;;;;;;;;4945470;28;20067;-71
2021/06/18 06:00:24;;;;;;;11.07;7.90;;;;;;;;;;4942243;28;20570;-71
2021/06/18 06:02:50;;;;;;;8.68;7.85;;;;;;;;;;4938719;28;20063;-70
2021/06/18 06:05:17;;;;;;;9.77;7.45;;;;;;;;;;4937752;28;20062;-71
2021/06/18 06:07:47;;;;;;;8.45;7.65;;;;;;;;;;4954337;28;20125;-71
2021/06/18 06:10:14;;;;;;;8.82;7.93;;;;;;;;;;4949779;28;20062;-70
2021/06/18 06:12:41;;;;;;;9.05;8.15;;;;;;;;;;4950589;28;20078;-70
2021/06/18 06:15:08;;;;;;;8.40;7.50;;;;;;;;;;4945786;28;20125;-70
2021/06/18 06:17:34;;;;;;;10.07;8.10;;;;;;;;;;4954476;28;20070;-72
2021/06/18 06:20:00;;;;;;;9.98;7.75;;;;;;;;;;4947877;28;20050;-71
2021/06/18 06:22:27;;;;;;;9.65;7.40;;;;;;;;;;4947516;28;20507;-71
2021/06/18 06:24:53;;;;;;;8.35;7.60;;;;;;;;;;4945994;28;20133;-71
2021/06/18 06:27:20;;;;;;;8.43;7.70;;;;;;;;;;4929788;28;20040;-71
2021/06/18 06:29:46;;;;;;;9.05;8.15;;;;;;;;;;4928085;28;20063;-71
2021/06/18 06:32:12;;;;;;;8.95;7.57;;;;;;;;;;4929518;28;20130;-71
2021/06/18 06:34:39;;;;;;;8.73;7.80;;;;;;;;;;4926941;28;20071;-71
2021/06/18 06:37:05;;;;;;;8.98;7.50;;;;;;;;;;4945990;28;20035;-70
2021/06/18 06:39:32;;;;;;;8.07;7.28;;;;;;;;;;4952593;28;20099;-71
2021/06/18 06:42:00;;;;;;;8.40;7.60;;;;;;;;;;4948979;28;20159;-71
2021/06/18 06:44:27;;;;;;;9.48;7.55;;;;;;;;;;4947262;28;20059;-71
2021/06/18 06:46:54;;;;;;;10.00;7.50;;;;;;;;;;4945979;28;20983;-70
2021/06/18 06:49:20;;;;;;;8.43;7.63;;;;;;;;;;4956438;28;20130;-70
2021/06/18 06:51:47;;;;;;;8.93;7.88;;;;;;;;;;4956880;28;20062;-70
2021/06/18 06:54:13;;;;;;;8.70;7.80;;;;;;;;;;4951522;28;20726;-70
2021/06/18 06:56:39;;;;;;;8.10;7.35;;;;;;;;;;4949004;28;20471;-71
2021/06/18 06:59:06;;;;;;;8.07;7.07;;;;;;;;;;4947191;28;20734;-70
2021/06/18 07:01:32;;;;;;;8.40;7.63;;;;;;;;;;4946470;28;20510;-71
2021/06/18 07:04:00;;;;;;;8.18;7.38;;;;;;;;;;4939245;28;21667;-71
2021/06/18 07:06:27;;;;;;;8.50;7.68;;;;;;;;;;4943306;28;20055;-71
2021/06/18 07:08:53;;;;;;;8.98;7.82;;;;;;;;;;4946806;28;22869;-71
2021/06/18 07:11:20;;;;;;;8.02;7.22;;;;;;;;;;4946117;28;20063;-71
2021/06/18 07:13:46;;;;;;;9.27;8.30;;;;;;;;;;4945667;28;20130;-71
2021/06/18 07:16:12;;;;;;;8.52;7.72;;;;;;;;;;4955630;28;20058;-71
2021/06/18 07:18:39;;;;;;;8.57;7.68;;;;;;;;;;4944875;28;20066;-72
2021/06/18 07:21:05;;;;;;;9.13;8.13;;;;;;;;;;4942619;28;20070;-71
2021/06/18 07:23:31;;;;;;;9.13;7.18;;;;;;;;;;4942757;28;20072;-71
2021/06/18 07:25:58;;;;;;;8.63;7.78;;;;;;;;;;4945840;28;20086;-71
2021/06/18 07:28:25;;;;;;;8.60;7.90;;;;;;;;;;4954928;28;20697;-70
2021/06/18 07:30:51;;;;;;;8.55;7.75;;;;;;;;;;4945011;28;20562;-71
2021/06/18 07:33:18;;;;;;;8.40;7.55;;;;;;;;;;4946800;28;20058;-70
2021/06/18 07:35:44;;;;;;;8.70;7.82;;;;;;;;;;4945041;28;20071;-71
2021/06/18 07:38:11;;;;;;;7.75;6.95;;;;;;;;;;4953336;28;20058;-71
2021/06/18 07:40:37;;;;;;;8.65;7.82;;;;;;;;;;4948461;28;20079;-71
2021/06/18 07:43:04;;;;;;;8.45;7.55;;;;;;;;;;4949761;28;20062;-71
2021/06/18 07:45:30;;;;;;;8.13;7.38;;;;;;;;;;4948143;28;20070;-71
2021/06/18 07:47:57;;;;;;;8.48;7.57;;;;;;;;;;4954808;28;20062;-71
2021/06/18 07:50:24;;;;;;;8.63;7.80;;;;;;;;;;4958056;28;20039;-71
2021/06/18 07:52:50;;;;;;;8.68;7.88;;;;;;;;;;4950985;28;20084;-71
2021/06/18 07:55:19;;;;;;;9.73;7.85;;;;;;;;;;4953326;28;20132;-71
2021/06/18 07:57:46;;;;;;;8.50;7.70;;;;;;;;;;4943999;28;20125;-71
2021/06/18 08:00:13;;;;;;;8.15;7.35;;;;;;;;;;4960571;28;20070;-71
2021/06/18 08:02:40;;;;;;;8.40;7.50;;;;;;;;;;4949226;28;20775;-71
2021/06/18 08:05:09;;;;;;;8.95;8.05;;;;;;;;;;4949414;28;20599;-70
2021/06/18 08:07:36;;;;;;;8.27;7.28;;;;;;;;;;4949968;28;20055;-70
2021/06/18 08:10:03;;;;;;;9.60;7.90;;;;;;;;;;4950027;28;20464;-70
2021/06/18 08:12:29;;;;;;;7.65;6.95;;;;;;;;;;4946517;28;20043;-71
2021/06/18 08:14:56;;;;;;;9.15;8.25;;;;;;;;;;4942813;28;20070;-70
2021/06/18 08:17:22;;;;;;;8.30;7.60;;;;;;;;;;4959374;28;20055;-70
2021/06/18 08:19:49;;;;;;;8.70;7.80;;;;;;;;;;4949792;28;20078;-71
2021/06/18 08:22:15;;;;;;;8.18;7.38;;;;;;;;;;4950801;28;20031;-70
2021/06/18 08:24:43;;;;;;;7.63;6.82;;;;;;;;;;4954583;28;20082;-70
2021/06/18 08:27:09;;;;;;;8.65;7.85;;;;;;;;;;4954435;28;20071;-70
2021/06/18 08:29:37;;;;;;;9.13;7.32;;;;;;;;;;4951053;28;20130;-71
2021/06/18 08:32:04;;;;;;;8.75;7.70;;;;;;;;;;4950143;28;20418;-71
2021/06/18 08:34:30;;;;;;;7.75;7.05;;;;;;;;;;4950572;28;20066;-72
2021/06/18 08:36:56;;;;;;;8.45;7.60;;;;;;;;;;4948970;28;20167;-70
2021/06/18 08:39:23;;;;;;;8.27;7.40;;;;;;;;;;4952494;28;20079;-72
2021/06/18 08:41:49;;;;;;;8.23;7.50;;;;;;;;;;4949398;28;20083;-70
2021/06/18 08:44:19;;;;;;;7.97;7.20;;;;;;;;;;4947991;28;20075;-69
2021/06/18 08:46:45;;;;;;;8.60;7.80;;;;;;;;;;4948781;28;20128;-70
2021/06/18 08:49:12;;;;;;;7.78;7.07;;;;;;;;;;4961330;28;20062;-71
2021/06/18 08:51:39;;;;;;;8.43;7.45;;;;;;;;;;4957094;28;20091;-70
2021/06/18 08:54:05;;;;;;;8.45;7.55;;;;;;;;;;4951236;28;20149;-70
2021/06/18 08:56:32;;;;;;;8.75;7.50;;;;;;;;;;4947278;28;20071;-70
2021/06/18 08:58:58;;;;;;;8.18;7.38;;;;;;;;;;4945890;28;20070;-70
2021/06/18 09:01:24;;;;;;;7.50;6.80;;;;;;;;;;4937317;28;20036;-71
2021/06/18 09:03:54;;;;;;;8.73;7.93;;;;;;;;;;4961781;28;20031;-70
2021/06/18 09:06:23;;;;;;;8.20;7.45;;;;;;;;;;4951110;28;20062;-71
2021/06/18 09:09:09;;;;;;;8.38;7.57;;;;;;;;;;4952577;28;20067;-71
2021/06/18 09:11:44;;;;;;;7.82;7.03;;;;;;;;;;4948556;28;20071;-69
2021/06/18 09:14:24;;;;;;;8.00;7.20;;;;;;;;;;4956263;28;20504;-70
2021/06/18 09:17:05;;;;;;;7.93;7.22;;;;;;;;;;4940032;28;20067;-70
2021/06/18 09:19:33;;;;;;;8.05;7.35;;;;;;;;;;4957102;28;20066;-71
2021/06/18 09:22:02;;;;;;;7.60;6.90;;;;;;;;;;4948734;28;20082;-71
2021/06/18 09:24:30;;;;;;;7.80;7.00;;;;;;;;;;4949562;28;20103;-69
2021/06/18 09:26:57;;;;;;;8.68;7.88;;;;;;;;;;4947628;28;20121;-69
2021/06/18 09:29:23;;;;;;;8.18;7.38;;;;;;;;;;4969232;28;21583;-72
2021/06/18 09:31:51;;;;;;;8.45;7.50;;;;;;;;;;4946017;28;20506;-71
2021/06/18 09:34:31;;;;;;;8.20;7.40;;;;;;;;;;4950904;28;20098;-70
2021/06/18 09:37:16;;;;;;;9.07;8.15;;;;;;;;;;4947748;28;20231;-71
2021/06/18 09:40:01;;;;;;;8.70;7.82;;;;;;;;;;4946860;28;20067;-71
2021/06/18 09:42:27;;;;;;;8.57;7.78;;;;;;;;;;4949259;28;20067;-71
2021/06/18 09:45:01;;;;;;;8.13;7.28;;;;;;;;;;4949212;28;20677;-70
2021/06/18 09:47:28;;;;;;;8.20;7.40;;;;;;;;;;4947196;28;20071;-71
2021/06/18 09:49:55;;;;;;;8.93;8.02;;;;;;;;;;4949012;28;20035;-71
2021/06/18 09:52:22;;;;;;;8.25;7.45;;;;;;;;;;4946876;28;20059;-70
2021/06/18 09:54:52;;;;;;;8.52;7.68;;;;;;;;;;4947509;28;21420;-70
2021/06/18 09:57:42;;;;;;;8.15;7.35;;;;;;;;;;4948235;28;20575;-69
2021/06/18 10:00:10;;;;;;;8.30;7.50;;;;;;;;;;4934484;28;21282;-70
2021/06/18 10:02:36;;;;;;;8.68;7.78;;;;;;;;;;4947349;28;20515;-70
2021/06/18 10:05:12;;;;;;;8.65;7.93;;;;;;;;;;4949618;28;20156;-69
2021/06/18 10:07:39;;;;;;;8.63;7.82;;;;;;;;;;4948038;28;20070;-69
2021/06/18 10:10:10;;;;;;;8.82;8.02;;;;;;;;;;4948599;28;20145;-70
2021/06/18 10:12:37;;;;;;;8.98;8.13;;;;;;;;;;4946828;28;20063;-70
2021/06/18 10:15:07;;;;;;;8.75;7.97;;;;;;;;;;4949459;28;20126;-70
2021/06/18 10:17:35;;;;;;;8.70;7.90;;;;;;;;;;4946528;28;20074;-70
2021/06/18 10:20:04;;;;;;;8.48;7.68;;;;;;;;;;4947031;28;20063;-70
2021/06/18 10:22:31;;;;;;;11.18;7.68;;;;;;;;;;4945749;28;20055;-71
2021/06/18 10:25:00;;;;;;;7.90;7.13;;;;;;;;;;4948458;28;20070;-71
2021/06/18 10:27:46;;;;;;;8.07;7.28;;;;;;;;;;4950916;28;20527;-71
2021/06/18 10:30:23;;;;;;;8.15;7.35;;;;;;;;;;4948121;28;20063;-70
2021/06/18 10:32:49;;;;;;;8.18;7.45;;;;;;;;;;4946874;28;20063;-70
2021/06/18 10:35:34;;;;;;;8.95;8.05;;;;;;;;;;4942508;28;20098;-69
2021/06/18 10:38:00;;;;;;;8.80;8.00;;;;;;;;;;4951422;28;22383;-71
2021/06/18 10:40:42;;;;;;;9.32;8.40;;;;;;;;;;4937239;28;20043;-71
2021/06/18 10:43:10;;;;;;;10.38;9.38;;;;;;;;;;4944938;28;20518;-72
2021/06/18 10:45:55;;;;;;;9.80;8.45;;;;;;;;;;4944130;28;20459;-71
2021/06/18 10:48:41;;;;;;;10.38;9.30;;;;;;;;;;4947738;28;20082;-71
2021/06/18 10:51:28;;;;;;;11.07;10.07;;;;;;;;;;4943345;28;20506;-72
2021/06/18 10:53:56;;;;;;;11.10;10.10;;;;;;;;;;4944474;28;21319;-70
2021/06/18 10:56:24;;;;;;;12.20;11.20;;;;;;;;;;4945962;28;20062;-71
2021/06/18 10:59:09;;;;;;;12.82;11.55;;;;;;;;;;4944947;28;20803;-71
2021/06/18 11:01:36;;;;;;;11.63;10.55;;;;;;;;;;4944463;28;20059;-71
2021/06/18 11:04:07;;;;;;;11.55;10.48;;;;;;;;;;4948264;28;20158;-72
2021/06/18 11:06:52;;;;;;;12.15;11.05;;;;;;;;;;4945564;28;20602;-72
2021/06/18 11:09:37;;;;;;;12.43;11.25;;;;;;;;;;4948267;28;20114;-71
2021/06/18 11:12:22;;;;;;;12.80;11.70;;;;;;;;;;4944475;28;22599;-72
2021/06/18 11:14:56;;;;;;;13.43;12.02;;;;;;;;;;4946430;28;20067;-71
2021/06/18 11:17:38;;;;;;;13.73;12.02;;;;;;;;;;4947206;28;20657;-71
2021/06/18 11:20:06;;;;;;;14.25;12.25;;;;;;;;;;4935704;28;21151;-72
2021/06/18 11:22:40;;;;;;;15.73;13.88;;;;;;;;;;4950956;28;20058;-72
2021/06/18 11:25:26;;;;;;;16.23;13.75;;;;;;;;;;4930382;28;20150;-71
2021/06/18 11:27:53;;;;;;;24.70;16.42;;;;;;;;;;4951962;28;20133;-71
2021/06/18 11:30:26;;;;;;;33.83;19.17;;;;;;;;;;4947920;28;20098;-72
2021/06/18 11:32:53;;;;;;;33.38;19.48;;;;;;;;;;4944809;28;20440;-72
2021/06/18 11:35:39;;;;;;;35.83;19.83;;;;;;;;;;4943359;28;20066;-71
2021/06/18 11:38:10;;;;;;;29.00;18.23;;;;;;;;;;4944990;28;20184;-71
2021/06/18 11:40:36;;;;;;;18.30;11.38;;;;;;;;;;4953019;28;20121;-71
2021/06/18 11:43:03;;;;;;;10.75;9.15;;;;;;;;;;4946757;28;20059;-70
2021/06/18 11:45:43;;;;;;;13.90;9.23;;;;;;;;;;4943917;28;20055;-71
2021/06/18 11:48:13;;;;;;;13.38;9.63;;;;;;;;;;4945463;28;20039;-71
2021/06/18 11:50:40;;;;;;;9.82;8.45;;;;;;;;;;4937231;28;20067;-71
2021/06/18 11:53:06;;;;;;;9.75;8.70;;;;;;;;;;4948041;28;20140;-71
2021/06/18 11:55:33;;;;;;;10.35;8.90;;;;;;;;;;4951879;28;20066;-71
2021/06/18 11:57:59;;;;;;;16.80;9.50;;;;;;;;;;4947298;28;20063;-71
2021/06/18 12:00:35;;;;;;;10.95;9.27;;;;;;;;;;4945528;28;20075;-71
2021/06/18 12:03:03;;;;;;;13.85;8.77;;;;;;;;;;4934595;28;20051;-70
2021/06/18 12:05:30;;;;;;;11.60;9.15;;;;;;;;;;4946521;28;20062;-71
2021/06/18 12:07:57;;;;;;;9.68;8.70;;;;;;;;;;4947227;28;20071;-71
2021/06/18 12:10:29;;;;;;;11.68;9.02;;;;;;;;;;4950293;28;20503;-71
2021/06/18 12:12:57;;;;;;;10.93;8.98;;;;;;;;;;4945583;28;20086;-70
2021/06/18 12:15:26;;;;;;;10.20;8.82;;;;;;;;;;4921786;28;20097;-70
2021/06/18 12:17:54;;;;;;;10.35;9.30;;;;;;;;;;4945862;28;20169;-71
2021/06/18 12:20:27;;;;;;;10.20;8.63;;;;;;;;;;4949926;28;20444;-71
2021/06/18 12:22:54;;;;;;;9.48;8.43;;;;;;;;;;4946815;28;20631;-69
2021/06/18 12:25:20;;;;;;;10.82;8.35;;;;;;;;;;4940559;28;20070;-71
2021/06/18 12:27:47;;;;;;;9.90;8.40;;;;;;;;;;4926258;28;21018;-71
2021/06/18 12:30:15;;;;;;;9.32;8.38;;;;;;;;;;4936036;28;20071;-71
2021/06/18 12:32:42;;;;;;;9.25;8.38;;;;;;;;;;4933368;28;20590;-71
2021/06/18 12:35:09;;;;;;;9.07;8.10;;;;;;;;;;4931388;28;20503;-71
2021/06/18 12:37:37;;;;;;;8.70;7.85;;;;;;;;;;4928636;28;20126;-71
2021/06/18 12:40:06;;;;;;;9.70;8.43;;;;;;;;;;4955141;28;20059;-71
2021/06/18 12:42:40;;;;;;;9.52;8.60;;;;;;;;;;4949174;28;20066;-71
2021/06/18 12:45:25;;;;;;;9.68;8.77;;;;;;;;;;4949903;28;20066;-71
2021/06/18 12:47:53;;;;;;;9.52;8.48;;;;;;;;;;4955381;28;20113;-71
2021/06/18 12:50:24;;;;;;;10.05;9.02;;;;;;;;;;4949726;28;20087;-71
2021/06/18 12:52:54;;;;;;;9.10;8.15;;;;;;;;;;4948900;28;20055;-70
2021/06/18 12:55:44;;;;;;;10.77;8.77;;;;;;;;;;4941577;28;20047;-69
2021/06/18 12:58:18;;;;;;;11.10;9.90;;;;;;;;;;4955904;28;21352;-70
2021/06/18 13:00:51;;;;;;;9.48;8.48;;;;;;;;;;4957604;28;20110;-70
2021/06/18 13:03:28;;;;;;;9.65;8.63;;;;;;;;;;4949721;28;20416;-72
2021/06/18 13:05:55;;;;;;;9.57;8.68;;;;;;;;;;4950790;28;20328;-70
2021/06/18 13:08:22;;;;;;;9.10;8.20;;;;;;;;;;4955358;28;20070;-70
2021/06/18 13:10:51;;;;;;;9.40;8.23;;;;;;;;;;4950049;28;20126;-71
2021/06/18 13:13:29;;;;;;;9.20;8.30;;;;;;;;;;4949223;28;20059;-70
2021/06/18 13:16:14;;;;;;;8.68;7.90;;;;;;;;;;4946454;28;20556;-71
2021/06/18 13:18:53;;;;;;;8.88;7.97;;;;;;;;;;4949862;28;20043;-72
2021/06/18 13:21:19;;;;;;;9.57;8.52;;;;;;;;;;4947106;28;20058;-70
2021/06/18 13:23:45;;;;;;;10.52;8.38;;;;;;;;;;4945411;28;20125;-71
2021/06/18 13:26:13;;;;;;;8.27;7.47;;;;;;;;;;4949208;28;20102;-71
2021/06/18 13:28:42;;;;;;;9.85;8.52;;;;;;;;;;4958874;28;20070;-71
2021/06/18 13:31:09;;;;;;;9.23;8.32;;;;;;;;;;4950981;28;20523;-70
2021/06/18 13:33:40;;;;;;;10.60;8.45;;;;;;;;;;4932987;28;20049;-71
2021/06/18 13:36:06;;;;;;;9.05;8.13;;;;;;;;;;4951617;28;20118;-70
2021/06/18 13:38:34;;;;;;;10.02;9.07;;;;;;;;;;4948288;28;20063;-71
2021/06/18 13:41:00;;;;;;;8.77;7.88;;;;;;;;;;4948824;28;20086;-71
2021/06/18 13:43:27;;;;;;;9.48;8.48;;;;;;;;;;4951309;28;20067;-70
2021/06/18 13:45:53;;;;;;;8.57;7.75;;;;;;;;;;4948532;28;20031;-70
2021/06/18 13:48:20;;;;;;;8.35;7.30;;;;;;;;;;4939767;28;20106;-70
2021/06/18 13:50:47;;;;;;;9.02;8.13;;;;;;;;;;4951087;28;20063;-70
2021/06/18 13:53:14;;;;;;;9.73;8.23;;;;;;;;;;4948514;28;20039;-71
2021/06/18 13:55:41;;;;;;;8.35;7.65;;;;;;;;;;4954347;28;20074;-70
2021/06/18 13:58:07;;;;;;;9.48;8.63;;;;;;;;;;4951230;28;20563;-70
2021/06/18 14:00:34;;;;;;;9.15;8.27;;;;;;;;;;4955059;28;20081;-71
2021/06/18 14:03:01;;;;;;;9.63;8.73;;;;;;;;;;4948067;28;20043;-71
2021/06/18 14:05:27;;;;;;;8.80;7.90;;;;;;;;;;4945843;28;20129;-70
2021/06/18 14:07:54;;;;;;;8.73;7.82;;;;;;;;;;4949797;28;20042;-71
2021/06/18 14:10:21;;;;;;;9.40;8.50;;;;;;;;;;4947738;28;20381;-71
2021/06/18 14:12:47;;;;;;;9.18;8.25;;;;;;;;;;4949214;28;20069;-70
2021/06/18 14:15:19;;;;;;;9.02;8.13;;;;;;;;;;4951103;28;20522;-70
2021/06/18 14:17:46;;;;;;;8.63;7.72;;;;;;;;;;4950474;28;20117;-71
2021/06/18 14:20:12;;;;;;;8.80;7.97;;;;;;;;;;4949922;28;20067;-71
2021/06/18 14:22:41;;;;;;;8.75;7.88;;;;;;;;;;4923474;28;20039;-70
2021/06/18 14:25:08;;;;;;;8.70;7.80;;;;;;;;;;4949742;28;20100;-70
2021/06/18 14:27:37;;;;;;;8.55;7.75;;;;;;;;;;4948739;28;20071;-71
2021/06/18 14:30:07;;;;;;;8.23;7.53;;;;;;;;;;4948625;28;20063;-71
2021/06/18 14:32:34;;;;;;;8.38;7.50;;;;;;;;;;4934774;28;20059;-71
2021/06/18 14:35:00;;;;;;;8.70;7.90;;;;;;;;;;4931618;28;20083;-70
2021/06/18 14:37:27;;;;;;;8.32;7.53;;;;;;;;;;4954425;28;20098;-70
2021/06/18 14:39:53;;;;;;;8.73;7.90;;;;;;;;;;4959651;28;20090;-71
2021/06/18 14:42:20;;;;;;;8.52;7.63;;;;;;;;;;4948070;28;20641;-70
2021/06/18 14:44:49;;;;;;;8.65;7.57;;;;;;;;;;4951512;28;20063;-71
2021/06/18 14:47:16;;;;;;;9.13;8.32;;;;;;;;;;4949653;28;20071;-71
2021/06/18 14:49:42;;;;;;;8.32;7.63;;;;;;;;;;4945219;28;20067;-71